createdAt,value
2022-08-08T00:10:58.442Z,8388.95312
2022-08-08T00:26:01.255Z,8645.45215
2022-08-08T00:41:13.013Z,8445.28711
2022-08-08T00:56:17.211Z,7373.74512
2022-08-08T01:11:19.385Z,4877.07568
2022-08-08T01:26:24.191Z,5094.021
2022-08-08T01:41:26.697Z,1832.64893
2022-08-08T01:56:37.226Z,745.52496
2022-08-08T02:12:00.174Z,637.65155
2022-08-08T02:27:03.014Z,499.81335
2022-08-08T02:42:10.705Z,353.58499
2022-08-08T02:57:16.987Z,212.15099
2022-08-08T03:12:36.508Z,97.08604
2022-08-08T03:28:03.652Z,27.56764
2022-08-08T03:43:16.462Z,3.59578
2022-08-08T03:58:36.418Z,0
2022-08-08T04:14:04.318Z,0
2022-08-08T04:29:37.710Z,0
2022-08-08T04:44:39.937Z,0
2022-08-08T04:59:42.686Z,0
2022-08-08T05:14:45.003Z,0
2022-08-08T05:29:52.132Z,0
2022-08-08T05:44:54.682Z,0
2022-08-08T06:00:24.840Z,0
2022-08-08T06:15:31.679Z,0
2022-08-08T06:30:53.740Z,0
2022-08-08T06:45:57.286Z,0
2022-08-08T07:00:59.753Z,0
2022-08-08T07:16:04.549Z,0
2022-08-08T07:31:10.120Z,0
2022-08-08T07:46:23.568Z,0
2022-08-08T08:02:33.698Z,0
2022-08-08T08:17:49.026Z,0
2022-08-08T08:32:51.925Z,0
2022-08-08T08:47:54.882Z,0
2022-08-08T09:03:00.723Z,0
2022-08-08T09:18:03.145Z,0
2022-08-08T09:33:54.527Z,0
2022-08-08T09:49:42.067Z,0
2022-08-08T10:04:47.769Z,0
2022-08-08T10:19:57.616Z,0
2022-08-08T10:35:01.345Z,0
2022-08-08T10:50:04.633Z,0
2022-08-08T11:05:14.751Z,0
2022-08-08T11:20:18.130Z,0
2022-08-08T11:35:37.771Z,0
2022-08-08T11:50:44.746Z,0
2022-08-08T12:05:54.849Z,2.39719
2022-08-08T12:20:58.804Z,16.7803
2022-08-08T12:36:02.471Z,65.92262
2022-08-08T12:51:10.897Z,158.21429
2022-08-08T13:06:14.406Z,274.47784
2022-08-08T13:21:16.889Z,516.59363
2022-08-08T13:36:25.722Z,852.19971
2022-08-08T13:51:37.763Z,1163.83398
2022-08-08T14:06:43.991Z,1450.29773
2022-08-08T14:21:49.069Z,1625.29236
2022-08-08T14:36:54.898Z,1869.8053
2022-08-08T14:51:57.163Z,2518.24414
2022-08-08T15:06:59.599Z,2061.58032
2022-08-08T15:22:06.872Z,2175.44653
2022-08-08T15:37:09.208Z,2445.13013
2022-08-08T15:52:11.690Z,3027.64624
2022-08-08T16:07:13.908Z,3480.7146
2022-08-08T16:22:30.327Z,3303.32275
2022-08-08T16:37:33.443Z,3552.63013
2022-08-08T16:55:01.539Z,3664.09912
2022-08-08T17:10:27.612Z,3611.36108
2022-08-08T17:25:47.631Z,3567.01318
2022-08-08T17:40:55.461Z,3375.23828
2022-08-08T17:56:06.727Z,3344.07495
2022-08-08T18:11:11.593Z,3612.55981
2022-08-08T18:26:17.257Z,3628.14136
2022-08-08T18:41:19.764Z,3519.06958
2022-08-08T18:56:54.682Z,3423.18213
2022-08-08T19:11:56.954Z,3513.07642
2022-08-08T19:26:59.392Z,3587.38916
2022-08-08T19:42:02.474Z,3592.18359
2022-08-08T19:57:07.758Z,3674.88647
2022-08-08T20:12:10.309Z,3614.95703
2022-08-08T20:27:20.650Z,3571.80762
2022-08-08T20:42:28.152Z,3736.01489
2022-08-08T20:57:32.199Z,3816.32056
2022-08-08T21:12:35.658Z,3697.65991
2022-08-08T21:28:06.217Z,3427.97632
2022-08-08T21:43:16.852Z,3498.69336
2022-08-08T21:58:19.173Z,4161.51562
2022-08-08T22:13:27.165Z,4925.01904
2022-08-08T22:29:15.001Z,5616.60742
2022-08-08T22:45:03.575Z,5822.76562
2022-08-08T23:00:07.627Z,6057.68994
2022-08-08T23:15:11.172Z,6573.08496
2022-08-08T23:31:45.019Z,7167.58691
2022-08-08T23:49:07.547Z,7472.02979
